Time;durP1;ratioP1;P1;durP2;ratioP2;P2;SDS_P1;SDS_P2;PMS_P1;PMS_P2;Temp;Humidity;BMP_temperature;BMP_pressure;BME280_temperature;BME280_humidity;BME280_pressure;Samples;Min_cycle;Max_cycle;Signal;HPM_P1;HPM_P2
2024/01/30 00:02:18;;;;;;;6.43;4.22;;;;;;;;;;5108963;27;41633;-63
2024/01/30 00:04:46;;;;;;;5.50;4.35;;;;;;;;;;5109636;27;41207;-63
2024/01/30 00:07:14;;;;;;;5.63;4.30;;;;;;;;;;5110133;27;41335;-63
2024/01/30 00:09:42;;;;;;;8.40;4.40;;;;;;;;;;5108608;27;41872;-63
2024/01/30 00:12:11;;;;;;;7.35;4.75;;;;;;;;;;5109483;27;40777;-63
2024/01/30 00:14:39;;;;;;;7.88;4.82;;;;;;;;;;5111208;27;42220;-64
2024/01/30 00:17:07;;;;;;;5.72;4.43;;;;;;;;;;5108747;27;39779;-63
2024/01/30 00:19:35;;;;;;;4.72;3.90;;;;;;;;;;5109418;27;43119;-63
2024/01/30 00:22:03;;;;;;;5.25;4.57;;;;;;;;;;5108883;27;41978;-63
2024/01/30 00:24:31;;;;;;;5.43;4.57;;;;;;;;;;5094181;27;41266;-63
2024/01/30 00:26:59;;;;;;;5.18;4.40;;;;;;;;;;5103124;27;40999;-63
2024/01/30 00:29:30;;;;;;;4.95;4.30;;;;;;;;;;5095359;28;41793;-63
2024/01/30 00:31:58;;;;;;;4.57;4.10;;;;;;;;;;5097699;28;40255;-63
2024/01/30 00:34:26;;;;;;;4.95;3.97;;;;;;;;;;5093115;27;41576;-63
2024/01/30 00:36:55;;;;;;;5.47;4.00;;;;;;;;;;5108220;27;39884;-63
2024/01/30 00:39:23;;;;;;;4.72;4.20;;;;;;;;;;5109844;27;42083;-63
2024/01/30 00:41:51;;;;;;;6.07;4.70;;;;;;;;;;5108502;27;41826;-63
2024/01/30 00:44:19;;;;;;;5.47;4.13;;;;;;;;;;5107562;27;42793;-65
2024/01/30 00:46:48;;;;;;;5.65;3.63;;;;;;;;;;5108250;27;41286;-64
2024/01/30 00:49:16;;;;;;;6.25;4.30;;;;;;;;;;5108776;27;42668;-64
2024/01/30 00:51:44;;;;;;;4.47;3.97;;;;;;;;;;5107658;27;40464;-64
2024/01/30 00:54:12;;;;;;;5.32;4.38;;;;;;;;;;5109225;27;43130;-64
2024/01/30 00:56:40;;;;;;;4.65;4.07;;;;;;;;;;5108708;27;42631;-64
2024/01/30 00:59:08;;;;;;;5.45;4.18;;;;;;;;;;5109123;27;41527;-64
2024/01/30 01:01:36;;;;;;;6.32;4.22;;;;;;;;;;5094774;27;42556;-64
2024/01/30 01:04:05;;;;;;;4.47;3.92;;;;;;;;;;5107281;28;40507;-64
2024/01/30 01:06:35;;;;;;;5.47;3.85;;;;;;;;;;5108285;27;41681;-64
2024/01/30 01:09:03;;;;;;;4.35;3.95;;;;;;;;;;5108793;27;42874;-63
2024/01/30 01:11:32;;;;;;;4.63;3.92;;;;;;;;;;5108454;27;40302;-64
2024/01/30 01:14:00;;;;;;;4.85;4.35;;;;;;;;;;5103669;28;41453;-64
2024/01/30 01:16:28;;;;;;;8.13;4.00;;;;;;;;;;5106584;27;41977;-64
2024/01/30 01:18:56;;;;;;;6.35;4.22;;;;;;;;;;5108802;27;40505;-64
2024/01/30 01:21:25;;;;;;;4.78;3.85;;;;;;;;;;5108337;27;42712;-65
2024/01/30 01:23:54;;;;;;;5.50;4.10;;;;;;;;;;5103374;27;40179;-64
2024/01/30 01:26:22;;;;;;;5.25;4.20;;;;;;;;;;5093540;27;42670;-64
2024/01/30 01:28:50;;;;;;;6.70;4.28;;;;;;;;;;5108647;27;43109;-64
2024/01/30 01:31:18;;;;;;;5.47;4.40;;;;;;;;;;5106377;27;40399;-64
2024/01/30 01:33:46;;;;;;;5.53;4.32;;;;;;;;;;5102555;27;42042;-64
2024/01/30 01:36:14;;;;;;;5.78;4.32;;;;;;;;;;5105365;28;41722;-64
2024/01/30 01:38:44;;;;;;;4.88;3.97;;;;;;;;;;5096762;27;40966;-64
2024/01/30 01:41:11;;;;;;;4.82;4.07;;;;;;;;;;5094134;28;42654;-64
2024/01/30 01:43:39;;;;;;;5.20;4.38;;;;;;;;;;5104374;28;39904;-63
2024/01/30 01:46:08;;;;;;;4.63;3.92;;;;;;;;;;5102589;28;41172;-64
2024/01/30 01:48:36;;;;;;;6.05;4.43;;;;;;;;;;5107934;27;42025;-64
2024/01/30 01:51:04;;;;;;;5.15;3.95;;;;;;;;;;5108367;27;41570;-63
2024/01/30 01:53:32;;;;;;;4.80;4.03;;;;;;;;;;5108086;27;41721;-64
2024/01/30 01:56:02;;;;;;;7.00;3.85;;;;;;;;;;5107466;27;40942;-64
2024/01/30 01:58:30;;;;;;;4.32;3.88;;;;;;;;;;5107829;27;42031;-63
2024/01/30 02:00:57;;;;;;;5.18;4.03;;;;;;;;;;5107120;27;41259;-64
2024/01/30 02:03:26;;;;;;;4.60;3.88;;;;;;;;;;5107875;27;42814;-64
2024/01/30 02:05:54;;;;;;;4.45;4.00;;;;;;;;;;5108347;27;41132;-64
2024/01/30 02:08:22;;;;;;;4.78;4.03;;;;;;;;;;5106662;27;41545;-64
2024/01/30 02:10:50;;;;;;;6.43;4.45;;;;;;;;;;5101037;27;40253;-63
2024/01/30 02:13:19;;;;;;;4.30;3.80;;;;;;;;;;5107835;27;41574;-64
2024/01/30 02:15:49;;;;;;;5.15;3.90;;;;;;;;;;5107007;27;42099;-63
2024/01/30 02:18:17;;;;;;;5.07;3.95;;;;;;;;;;5108113;27;40344;-64
2024/01/30 02:20:46;;;;;;;4.68;4.05;;;;;;;;;;5106747;27;41517;-64
2024/01/30 02:23:15;;;;;;;4.93;3.95;;;;;;;;;;5106692;27;43123;-64
2024/01/30 02:25:44;;;;;;;5.28;3.85;;;;;;;;;;5107960;27;40380;-64
2024/01/30 02:28:12;;;;;;;5.03;3.80;;;;;;;;;;5107306;27;41915;-64
2024/01/30 02:30:40;;;;;;;5.35;3.95;;;;;;;;;;5107169;27;41489;-64
2024/01/30 02:33:08;;;;;;;6.55;5.10;;;;;;;;;;5107305;27;41551;-64
2024/01/30 02:35:36;;;;;;;4.97;4.40;;;;;;;;;;5108029;27;41809;-64
2024/01/30 02:38:04;;;;;;;4.88;4.15;;;;;;;;;;5106765;27;41602;-63
2024/01/30 02:40:33;;;;;;;4.35;3.83;;;;;;;;;;5107458;27;41616;-64
2024/01/30 02:43:01;;;;;;;5.32;3.67;;;;;;;;;;5102115;27;41600;-64
2024/01/30 02:45:29;;;;;;;4.28;3.78;;;;;;;;;;5105379;28;40405;-63
2024/01/30 02:47:57;;;;;;;5.30;4.15;;;;;;;;;;5094335;28;43307;-63
2024/01/30 02:50:25;;;;;;;5.18;4.13;;;;;;;;;;5096876;28;40100;-64
2024/01/30 02:52:53;;;;;;;4.63;3.97;;;;;;;;;;5091304;27;42559;-64
2024/01/30 02:55:21;;;;;;;4.93;4.00;;;;;;;;;;5092711;28;41691;-63
2024/01/30 02:57:51;;;;;;;5.00;4.00;;;;;;;;;;5090194;28;39776;-63
2024/01/30 03:00:19;;;;;;;4.53;4.00;;;;;;;;;;5106340;27;42353;-64
2024/01/30 03:02:47;;;;;;;4.78;3.90;;;;;;;;;;5107254;27;43695;-63
2024/01/30 03:05:15;;;;;;;5.93;3.95;;;;;;;;;;5106375;27;40396;-64
2024/01/30 03:07:43;;;;;;;5.03;4.30;;;;;;;;;;5107692;27;41574;-64
2024/01/30 03:10:11;;;;;;;5.53;4.10;;;;;;;;;;5105688;27;41336;-63
2024/01/30 03:12:39;;;;;;;5.38;3.65;;;;;;;;;;5106641;27;41136;-63
2024/01/30 03:15:09;;;;;;;4.50;4.10;;;;;;;;;;5106741;27;41976;-64
2024/01/30 03:17:37;;;;;;;5.32;4.50;;;;;;;;;;5106871;27;40328;-64
2024/01/30 03:20:06;;;;;;;5.25;4.00;;;;;;;;;;5106273;27;42638;-64
2024/01/30 03:22:34;;;;;;;4.50;3.97;;;;;;;;;;5106876;27;42115;-64
2024/01/30 03:25:03;;;;;;;5.07;4.07;;;;;;;;;;5106430;27;40338;-64
2024/01/30 03:27:31;;;;;;;4.25;3.72;;;;;;;;;;5106737;27;42224;-63
2024/01/30 03:29:59;;;;;;;4.78;4.00;;;;;;;;;;5107143;27;43764;-66
2024/01/30 03:32:28;;;;;;;5.93;3.83;;;;;;;;;;5094715;27;41645;-64
2024/01/30 03:34:56;;;;;;;7.47;4.50;;;;;;;;;;5104486;28;42244;-64
2024/01/30 03:37:24;;;;;;;5.63;4.25;;;;;;;;;;5106854;27;41446;-64
2024/01/30 03:39:52;;;;;;;6.47;3.88;;;;;;;;;;5097915;27;42559;-64
2024/01/30 03:42:20;;;;;;;5.97;3.80;;;;;;;;;;5101822;28;42089;-64
2024/01/30 03:44:48;;;;;;;6.00;4.10;;;;;;;;;;5106584;27;41621;-63
2024/01/30 03:47:15;;;;;;;4.20;3.75;;;;;;;;;;5104829;27;41224;-63
2024/01/30 03:49:45;;;;;;;6.38;4.03;;;;;;;;;;5105747;27;43100;-64
2024/01/30 03:52:13;;;;;;;4.30;3.90;;;;;;;;;;5103453;27;41058;-64
2024/01/30 03:54:41;;;;;;;5.18;3.97;;;;;;;;;;5092515;27;41792;-64
2024/01/30 03:57:09;;;;;;;4.32;3.85;;;;;;;;;;5092269;28;40247;-64
2024/01/30 03:59:37;;;;;;;5.05;3.72;;;;;;;;;;5093005;27;41645;-63
2024/01/30 04:02:05;;;;;;;4.65;3.90;;;;;;;;;;5096981;27;42751;-63
2024/01/30 04:04:33;;;;;;;5.40;4.28;;;;;;;;;;5100253;28;39673;-64
2024/01/30 04:07:03;;;;;;;5.03;4.07;;;;;;;;;;5106279;27;42219;-63
2024/01/30 04:09:32;;;;;;;4.47;3.92;;;;;;;;;;5097655;27;42754;-64
2024/01/30 04:12:02;;;;;;;4.10;3.60;;;;;;;;;;5105556;28;39974;-64
2024/01/30 04:14:30;;;;;;;5.57;4.82;;;;;;;;;;5105998;27;43176;-63
2024/01/30 04:16:58;;;;;;;4.85;4.00;;;;;;;;;;5104130;27;39957;-64
2024/01/30 04:19:26;;;;;;;4.93;4.10;;;;;;;;;;5095495;27;41923;-62
2024/01/30 04:21:54;;;;;;;5.43;4.28;;;;;;;;;;5105956;27;43256;-64
2024/01/30 04:24:23;;;;;;;5.22;4.22;;;;;;;;;;5105942;27;40316;-65
2024/01/30 04:26:51;;;;;;;5.18;3.97;;;;;;;;;;5106395;27;42504;-65
2024/01/30 04:29:19;;;;;;;5.03;4.18;;;;;;;;;;5091287;27;42014;-65
2024/01/30 04:31:47;;;;;;;4.43;3.63;;;;;;;;;;5091186;28;40053;-65
2024/01/30 04:34:15;;;;;;;5.32;3.95;;;;;;;;;;5106233;27;41378;-64
2024/01/30 04:36:44;;;;;;;6.32;4.43;;;;;;;;;;5091593;27;34135;-64
2024/01/30 04:39:13;;;;;;;4.75;4.05;;;;;;;;;;5108633;27;42266;-64
2024/01/30 04:41:42;;;;;;;4.65;4.15;;;;;;;;;;5109158;27;41939;-64
2024/01/30 04:44:10;;;;;;;4.30;3.85;;;;;;;;;;5093877;27;41354;-64
2024/01/30 04:46:38;;;;;;;5.18;4.10;;;;;;;;;;5110138;27;41151;-65
2024/01/30 04:49:07;;;;;;;4.95;4.10;;;;;;;;;;5108769;27;42043;-64
2024/01/30 04:51:35;;;;;;;4.43;4.03;;;;;;;;;;5102887;27;41113;-64
2024/01/30 04:54:03;;;;;;;4.18;3.78;;;;;;;;;;5101544;28;41815;-64
2024/01/30 04:56:31;;;;;;;4.95;4.18;;;;;;;;;;5108889;27;42125;-64
2024/01/30 04:59:00;;;;;;;4.60;3.72;;;;;;;;;;5109462;27;41627;-64
2024/01/30 05:01:28;;;;;;;4.78;4.03;;;;;;;;;;5101292;27;42941;-64
2024/01/30 05:03:56;;;;;;;5.13;4.20;;;;;;;;;;5106058;27;40408;-64
2024/01/30 05:06:25;;;;;;;4.45;3.85;;;;;;;;;;5095854;28;41387;-64
2024/01/30 05:08:53;;;;;;;4.07;3.60;;;;;;;;;;5097936;28;42828;-64
2024/01/30 05:11:21;;;;;;;4.65;3.80;;;;;;;;;;5106025;27;41953;-64
2024/01/30 05:13:49;;;;;;;4.65;4.15;;;;;;;;;;5108011;27;41645;-64
2024/01/30 05:16:18;;;;;;;5.30;4.10;;;;;;;;;;5108994;27;42904;-64
2024/01/30 05:18:49;;;;;;;5.40;3.95;;;;;;;;;;5108285;27;40093;-64
2024/01/30 05:21:17;;;;;;;4.63;4.00;;;;;;;;;;5108993;27;41325;-64
2024/01/30 05:23:45;;;;;;;4.25;3.85;;;;;;;;;;5101840;27;39917;-63
2024/01/30 05:26:13;;;;;;;4.63;3.85;;;;;;;;;;5107400;27;41449;-64
2024/01/30 05:28:41;;;;;;;5.70;4.00;;;;;;;;;;5107932;27;41995;-64
2024/01/30 05:31:09;;;;;;;4.88;4.38;;;;;;;;;;5108396;27;40965;-64
2024/01/30 05:33:38;;;;;;;4.65;4.22;;;;;;;;;;5106478;27;42111;-64
2024/01/30 05:36:06;;;;;;;4.47;4.07;;;;;;;;;;5096404;28;42087;-64
2024/01/30 05:38:37;;;;;;;4.88;4.00;;;;;;;;;;5108265;27;39980;-64
2024/01/30 05:41:05;;;;;;;5.38;4.18;;;;;;;;;;5106839;27;41093;-64
2024/01/30 05:43:33;;;;;;;4.78;3.97;;;;;;;;;;5108890;27;40853;-64
2024/01/30 05:46:01;;;;;;;4.68;3.80;;;;;;;;;;5093914;27;41503;-63
2024/01/30 05:48:29;;;;;;;5.88;4.38;;;;;;;;;;5108319;27;43154;-64
2024/01/30 05:50:59;;;;;;;5.75;3.92;;;;;;;;;;5108088;27;40749;-64
2024/01/30 05:53:27;;;;;;;4.60;4.10;;;;;;;;;;5108127;27;42033;-64
2024/01/30 05:55:55;;;;;;;4.20;3.80;;;;;;;;;;5108057;27;41896;-64
2024/01/30 05:58:23;;;;;;;4.85;3.97;;;;;;;;;;5108202;27;40419;-64
2024/01/30 06:00:51;;;;;;;5.05;4.22;;;;;;;;;;5108121;27;41464;-64
2024/01/30 06:03:20;;;;;;;4.93;4.43;;;;;;;;;;5107462;27;41998;-64
2024/01/30 06:05:48;;;;;;;4.40;3.80;;;;;;;;;;5107835;27;41472;-64
2024/01/30 06:08:17;;;;;;;5.20;4.15;;;;;;;;;;5106927;27;41278;-63
2024/01/30 06:10:45;;;;;;;4.82;4.28;;;;;;;;;;5099883;27;40480;-63
2024/01/30 06:13:13;;;;;;;4.80;3.90;;;;;;;;;;5092376;28;42490;-64
2024/01/30 06:15:41;;;;;;;4.55;3.70;;;;;;;;;;5106612;27;41481;-64
2024/01/30 06:18:09;;;;;;;4.43;3.90;;;;;;;;;;5093234;27;40815;-64
2024/01/30 06:20:37;;;;;;;5.97;4.25;;;;;;;;;;5101597;27;42555;-64
2024/01/30 06:23:05;;;;;;;4.47;3.85;;;;;;;;;;5091022;28;42779;-64
2024/01/30 06:25:34;;;;;;;4.82;3.95;;;;;;;;;;5107226;27;41466;-64
2024/01/30 06:28:02;;;;;;;5.55;4.13;;;;;;;;;;5104869;27;42963;-64
2024/01/30 06:30:30;;;;;;;4.97;3.92;;;;;;;;;;5105586;27;42084;-64
2024/01/30 06:32:58;;;;;;;4.20;3.78;;;;;;;;;;5104803;27;42637;-64
2024/01/30 06:35:28;;;;;;;4.72;4.10;;;;;;;;;;5104917;27;42684;-64
2024/01/30 06:37:56;;;;;;;4.30;3.65;;;;;;;;;;5105871;27;39944;-64
2024/01/30 06:40:24;;;;;;;5.00;3.95;;;;;;;;;;5102976;27;42220;-63
2024/01/30 06:42:54;;;;;;;5.32;4.25;;;;;;;;;;5102997;28;42064;-64
2024/01/30 06:45:22;;;;;;;4.25;3.85;;;;;;;;;;5098822;27;40998;-64
2024/01/30 06:47:50;;;;;;;5.63;4.03;;;;;;;;;;5091884;27;42931;-64
2024/01/30 06:50:18;;;;;;;4.80;3.90;;;;;;;;;;5100402;28;40358;-64
2024/01/30 06:52:46;;;;;;;4.50;3.80;;;;;;;;;;5105974;27;41732;-63
2024/01/30 06:55:14;;;;;;;5.70;4.07;;;;;;;;;;5100760;27;41517;-64
2024/01/30 06:57:45;;;;;;;6.07;4.07;;;;;;;;;;5096310;28;39919;-64
2024/01/30 07:00:19;;;;;;;4.32;3.88;;;;;;;;;;5092417;28;41606;-63
2024/01/30 07:02:47;;;;;;;5.03;3.63;;;;;;;;;;5102423;27;42223;-63
2024/01/30 07:05:15;;;;;;;5.63;4.10;;;;;;;;;;5106313;27;43479;-64
2024/01/30 07:07:43;;;;;;;4.68;3.33;;;;;;;;;;5107734;27;41516;-64
2024/01/30 07:10:11;;;;;;;5.03;3.85;;;;;;;;;;5095627;27;39635;-64
2024/01/30 07:12:39;;;;;;;4.20;3.50;;;;;;;;;;5086519;28;42106;-64
2024/01/30 07:15:08;;;;;;;4.15;3.60;;;;;;;;;;5103754;28;41625;-64
2024/01/30 07:17:38;;;;;;;4.05;3.63;;;;;;;;;;5106472;27;40562;-64
2024/01/30 07:20:07;;;;;;;5.32;3.78;;;;;;;;;;5106633;27;43211;-64
2024/01/30 07:22:35;;;;;;;5.28;3.63;;;;;;;;;;5107530;27;41765;-64
2024/01/30 07:25:03;;;;;;;4.90;4.32;;;;;;;;;;5092129;28;40493;-64
2024/01/30 07:27:31;;;;;;;5.35;3.90;;;;;;;;;;5107502;27;42375;-64
2024/01/30 07:29:59;;;;;;;4.35;3.85;;;;;;;;;;5106352;27;41982;-64
2024/01/30 07:32:27;;;;;;;4.78;3.40;;;;;;;;;;5094773;27;42056;-63
2024/01/30 07:34:56;;;;;;;5.90;4.30;;;;;;;;;;5103910;28;42910;-64
2024/01/30 07:37:35;;;;;;;4.10;3.58;;;;;;;;;;5107216;27;39835;-64
2024/01/30 07:40:04;;;;;;;7.60;3.70;;;;;;;;;;5105698;27;42325;-64
2024/01/30 07:42:32;;;;;;;4.22;3.35;;;;;;;;;;5106189;27;41926;-64
2024/01/30 07:45:00;;;;;;;4.25;3.67;;;;;;;;;;5102319;27;42277;-65
2024/01/30 07:47:28;;;;;;;5.15;3.90;;;;;;;;;;5094037;27;42167;-65
2024/01/30 07:49:58;;;;;;;5.50;3.60;;;;;;;;;;5093140;27;41009;-64
2024/01/30 07:52:26;;;;;;;4.38;3.65;;;;;;;;;;5093598;28;39923;-63
2024/01/30 07:54:56;;;;;;;4.63;3.80;;;;;;;;;;5104870;28;42316;-64
2024/01/30 07:57:24;;;;;;;4.97;3.90;;;;;;;;;;5095185;27;40499;-64
2024/01/30 07:59:52;;;;;;;4.53;3.40;;;;;;;;;;5086506;28;41537;-64
2024/01/30 08:02:20;;;;;;;4.25;3.58;;;;;;;;;;5096143;28;43134;-64
2024/01/30 08:04:49;;;;;;;5.63;3.92;;;;;;;;;;5092003;27;40095;-64
2024/01/30 08:07:19;;;;;;;4.85;3.85;;;;;;;;;;5105348;27;42653;-64
2024/01/30 08:09:47;;;;;;;4.47;3.65;;;;;;;;;;5105560;27;42225;-63
2024/01/30 08:12:15;;;;;;;4.03;3.60;;;;;;;;;;5092944;28;42287;-64
2024/01/30 08:14:43;;;;;;;4.00;3.58;;;;;;;;;;5104182;27;42701;-63
2024/01/30 08:17:11;;;;;;;4.43;3.58;;;;;;;;;;5095870;28;40280;-64
2024/01/30 08:19:39;;;;;;;4.47;3.53;;;;;;;;;;5110178;27;41507;-64
2024/01/30 08:22:07;;;;;;;4.13;3.53;;;;;;;;;;5108774;27;42109;-64
2024/01/30 08:24:36;;;;;;;4.72;3.80;;;;;;;;;;5106955;27;41306;-64
2024/01/30 08:27:05;;;;;;;3.92;3.45;;;;;;;;;;5096450;27;41328;-64
2024/01/30 08:29:33;;;;;;;5.63;3.70;;;;;;;;;;5092800;27;42705;-63
2024/01/30 08:32:01;;;;;;;4.97;3.63;;;;;;;;;;5102078;27;41006;-62
2024/01/30 08:34:29;;;;;;;4.00;3.58;;;;;;;;;;5096452;28;41687;-62
2024/01/30 08:36:57;;;;;;;4.38;3.28;;;;;;;;;;5092549;27;41521;-62
2024/01/30 08:39:25;;;;;;;5.43;3.65;;;;;;;;;;5103066;28;41847;-62
2024/01/30 08:41:55;;;;;;;11.18;4.13;;;;;;;;;;5099439;27;43210;-76
2024/01/30 08:44:23;;;;;;;5.93;3.80;;;;;;;;;;5109468;27;40280;-75
2024/01/30 08:46:51;;;;;;;7.10;4.20;;;;;;;;;;5101473;27;41111;-75
2024/01/30 08:49:20;;;;;;;10.57;4.10;;;;;;;;;;5100777;27;42186;-77
2024/01/30 08:51:48;;;;;;;7.53;3.90;;;;;;;;;;5103568;27;40979;-77
2024/01/30 08:54:17;;;;;;;11.43;4.10;;;;;;;;;;5102947;28;41495;-77
2024/01/30 08:56:45;;;;;;;5.20;4.00;;;;;;;;;;5093694;28;42061;-69
2024/01/30 08:59:14;;;;;;;9.00;3.90;;;;;;;;;;5098059;28;41353;-72
2024/01/30 09:01:42;;;;;;;10.27;4.00;;;;;;;;;;5103809;27;42665;-71
2024/01/30 09:04:26;;;;;;;10.50;3.65;;;;;;;;;;5105055;28;41284;-71
2024/01/30 09:06:54;;;;;;;4.88;4.00;;;;;;;;;;5108517;27;42542;-73
2024/01/30 09:09:23;;;;;;;5.95;3.88;;;;;;;;;;5096694;27;42543;-71
2024/01/30 09:11:51;;;;;;;4.93;3.60;;;;;;;;;;5094418;28;41354;-70
2024/01/30 09:14:20;;;;;;;7.72;3.65;;;;;;;;;;5090380;27;41846;-73
2024/01/30 09:16:49;;;;;;;6.78;3.97;;;;;;;;;;5094056;27;41842;-71
2024/01/30 09:19:17;;;;;;;7.40;3.78;;;;;;;;;;5090764;28;40486;-70
2024/01/30 09:21:45;;;;;;;11.68;4.13;;;;;;;;;;5102112;28;42688;-71
2024/01/30 09:24:13;;;;;;;8.13;3.47;;;;;;;;;;5101138;28;41821;-70
2024/01/30 09:26:41;;;;;;;8.20;3.60;;;;;;;;;;5103295;27;41640;-74
2024/01/30 09:29:09;;;;;;;10.18;3.90;;;;;;;;;;5101626;27;43095;-67
2024/01/30 09:31:38;;;;;;;9.05;3.67;;;;;;;;;;5107690;27;40239;-67
2024/01/30 09:34:06;;;;;;;4.45;3.67;;;;;;;;;;5108421;27;42312;-72
2024/01/30 09:36:34;;;;;;;11.98;4.07;;;;;;;;;;5108655;27;42112;-70
2024/01/30 09:39:04;;;;;;;5.43;3.92;;;;;;;;;;5107435;27;39966;-72
2024/01/30 09:41:32;;;;;;;4.70;3.53;;;;;;;;;;5108759;28;41666;-71
2024/01/30 09:44:00;;;;;;;6.75;4.10;;;;;;;;;;5094854;27;39574;-73
2024/01/30 09:46:28;;;;;;;5.13;3.67;;;;;;;;;;5102635;28;41364;-73
2024/01/30 09:48:58;;;;;;;11.02;3.63;;;;;;;;;;5100201;28;42487;-71
2024/01/30 09:51:26;;;;;;;6.82;3.40;;;;;;;;;;5109183;27;40328;-73
2024/01/30 09:53:54;;;;;;;5.35;3.92;;;;;;;;;;5107860;27;40338;-74
2024/01/30 09:56:22;;;;;;;10.73;3.33;;;;;;;;;;5108906;27;41895;-73
2024/01/30 09:58:50;;;;;;;9.90;4.03;;;;;;;;;;5109070;27;40925;-71
2024/01/30 10:01:18;;;;;;;5.18;3.28;;;;;;;;;;5095028;28;41551;-71
2024/01/30 10:03:47;;;;;;;4.90;3.25;;;;;;;;;;5099314;27;41968;-71
2024/01/30 10:06:17;;;;;;;6.40;3.75;;;;;;;;;;5097571;27;41878;-71
2024/01/30 10:08:46;;;;;;;11.13;4.10;;;;;;;;;;5095393;27;42107;-71
2024/01/30 10:11:14;;;;;;;9.95;3.55;;;;;;;;;;5096051;27;40580;-71
2024/01/30 10:13:42;;;;;;;8.07;4.22;;;;;;;;;;5096304;28;41955;-71
2024/01/30 10:16:10;;;;;;;8.05;3.08;;;;;;;;;;5092593;27;41510;-72
2024/01/30 10:18:37;;;;;;;8.25;3.45;;;;;;;;;;5098468;28;39651;-73
2024/01/30 10:21:08;;;;;;;5.57;3.97;;;;;;;;;;5100975;27;42195;-74
2024/01/30 10:23:38;;;;;;;8.60;3.63;;;;;;;;;;5094847;27;41052;-73
2024/01/30 10:26:08;;;;;;;8.45;4.28;;;;;;;;;;5097165;28;39800;-71
2024/01/30 10:28:36;;;;;;;4.95;3.28;;;;;;;;;;5106996;27;43123;-73
2024/01/30 10:31:04;;;;;;;8.85;3.70;;;;;;;;;;5096733;27;40968;-69
2024/01/30 10:33:34;;;;;;;7.10;3.95;;;;;;;;;;5092598;27;41802;-72
2024/01/30 10:36:02;;;;;;;13.45;3.97;;;;;;;;;;5099991;28;43072;-77
2024/01/30 10:38:30;;;;;;;8.20;4.03;;;;;;;;;;5109080;27;41586;-74
2024/01/30 10:41:00;;;;;;;7.82;4.82;;;;;;;;;;5107439;27;41727;-70
2024/01/30 10:43:31;;;;;;;7.68;3.58;;;;;;;;;;5099504;27;43144;-74
2024/01/30 10:46:00;;;;;;;6.93;3.90;;;;;;;;;;5103368;28;40913;-73
2024/01/30 10:48:30;;;;;;;6.78;4.50;;;;;;;;;;5108380;27;42944;-74
2024/01/30 10:50:58;;;;;;;5.97;4.72;;;;;;;;;;5093826;27;40369;-72
2024/01/30 10:53:28;;;;;;;6.32;4.13;;;;;;;;;;5108505;27;41531;-73
2024/01/30 10:56:00;;;;;;;6.35;4.93;;;;;;;;;;5107107;27;41460;-71
2024/01/30 10:58:28;;;;;;;6.53;4.97;;;;;;;;;;5093991;28;40821;-70
2024/01/30 11:00:56;;;;;;;7.70;4.65;;;;;;;;;;5107754;27;43068;-71
2024/01/30 11:03:24;;;;;;;8.93;3.72;;;;;;;;;;5107103;27;42491;-71
2024/01/30 11:05:54;;;;;;;11.73;3.95;;;;;;;;;;5109297;27;20263;-71
2024/01/30 11:08:23;;;;;;;5.82;4.50;;;;;;;;;;5107215;27;41702;-73
2024/01/30 11:10:55;;;;;;;6.45;3.72;;;;;;;;;;5104204;27;40140;-70
2024/01/30 11:13:24;;;;;;;6.32;4.10;;;;;;;;;;5103469;27;42149;-69
2024/01/30 11:15:52;;;;;;;7.63;4.00;;;;;;;;;;5108170;27;41491;-75
2024/01/30 11:18:23;;;;;;;7.15;4.05;;;;;;;;;;5096109;27;39788;-72
2024/01/30 11:20:51;;;;;;;9.30;5.25;;;;;;;;;;5088081;27;42387;-69
2024/01/30 11:23:19;;;;;;;14.23;5.03;;;;;;;;;;5094326;27;42673;-69
2024/01/30 11:25:47;;;;;;;13.40;4.07;;;;;;;;;;5097704;27;40660;-69
2024/01/30 11:28:16;;;;;;;7.05;4.25;;;;;;;;;;5091313;27;42553;-68
2024/01/30 11:30:47;;;;;;;5.85;3.65;;;;;;;;;;5089260;27;42183;-69
2024/01/30 11:33:15;;;;;;;7.63;3.70;;;;;;;;;;5091262;27;41830;-69
2024/01/30 11:35:44;;;;;;;6.03;3.90;;;;;;;;;;5089369;27;41059;-68
2024/01/30 11:38:14;;;;;;;11.10;4.88;;;;;;;;;;5090123;28;40389;-69
2024/01/30 11:40:42;;;;;;;5.60;3.53;;;;;;;;;;5100323;28;42152;-72
2024/01/30 11:43:10;;;;;;;8.60;3.80;;;;;;;;;;5093621;28;41779;-70
2024/01/30 11:45:39;;;;;;;6.57;4.40;;;;;;;;;;5101885;27;40591;-72
2024/01/30 11:48:10;;;;;;;6.30;4.10;;;;;;;;;;5109507;27;41220;-70
2024/01/30 11:50:39;;;;;;;4.53;3.78;;;;;;;;;;5108731;27;41659;-71
2024/01/30 11:53:07;;;;;;;6.07;4.45;;;;;;;;;;5107592;27;40872;-68
2024/01/30 11:55:36;;;;;;;6.30;4.20;;;;;;;;;;5110843;27;42184;-69
2024/01/30 11:58:04;;;;;;;6.20;4.10;;;;;;;;;;5104480;27;40740;-69
2024/01/30 12:00:33;;;;;;;5.45;4.15;;;;;;;;;;5092623;27;42333;-69
2024/01/30 12:03:03;;;;;;;6.85;4.32;;;;;;;;;;5109394;27;41938;-74
2024/01/30 12:05:32;;;;;;;11.63;4.57;;;;;;;;;;5102140;27;41526;-71
2024/01/30 12:08:00;;;;;;;9.30;4.68;;;;;;;;;;5105081;27;41077;-69
2024/01/30 12:10:30;;;;;;;7.40;5.05;;;;;;;;;;5110915;27;42843;-69
2024/01/30 12:12:58;;;;;;;8.30;4.53;;;;;;;;;;5109367;27;40115;-69
2024/01/30 12:15:27;;;;;;;6.30;3.60;;;;;;;;;;5107892;27;41487;-70
2024/01/30 12:18:04;;;;;;;8.52;4.80;;;;;;;;;;5110302;27;42185;-70
2024/01/30 12:20:33;;;;;;;6.20;4.10;;;;;;;;;;5108356;27;41778;-71
2024/01/30 12:23:01;;;;;;;9.38;5.55;;;;;;;;;;5109839;27;42073;-68
2024/01/30 12:25:29;;;;;;;7.88;5.32;;;;;;;;;;5110533;27;39697;-70
2024/01/30 12:27:58;;;;;;;8.32;4.70;;;;;;;;;;5109049;27;41527;-68
2024/01/30 12:30:26;;;;;;;13.70;5.53;;;;;;;;;;5105023;27;42015;-68
2024/01/30 12:32:54;;;;;;;7.10;4.50;;;;;;;;;;5110099;27;40456;-69
2024/01/30 12:35:22;;;;;;;7.13;4.10;;;;;;;;;;5102251;27;41582;-70
2024/01/30 12:37:51;;;;;;;12.38;5.13;;;;;;;;;;5103492;27;43122;-69
2024/01/30 12:40:20;;;;;;;10.68;5.07;;;;;;;;;;5109975;27;41506;-65
2024/01/30 12:42:49;;;;;;;8.20;4.82;;;;;;;;;;5104358;27;41836;-66
2024/01/30 12:45:20;;;;;;;7.18;5.25;;;;;;;;;;5099664;28;40221;-66
2024/01/30 12:47:48;;;;;;;6.53;5.25;;;;;;;;;;5093912;27;41436;-66
2024/01/30 12:50:17;;;;;;;9.45;5.45;;;;;;;;;;5109146;27;41934;-66
2024/01/30 12:52:45;;;;;;;6.18;3.83;;;;;;;;;;5108087;27;40908;-66
2024/01/30 12:55:18;;;;;;;8.68;4.53;;;;;;;;;;5105529;28;41603;-66
2024/01/30 12:57:46;;;;;;;6.32;4.95;;;;;;;;;;5105545;27;42000;-66
2024/01/30 13:00:16;;;;;;;9.20;5.32;;;;;;;;;;5109217;27;40430;-66
2024/01/30 13:02:45;;;;;;;12.05;6.70;;;;;;;;;;5094691;27;42937;-66
2024/01/30 13:05:12;;;;;;;5.93;4.18;;;;;;;;;;5102605;28;40817;-66
2024/01/30 13:07:41;;;;;;;8.73;5.28;;;;;;;;;;5104781;28;41130;-66
2024/01/30 13:10:09;;;;;;;6.07;4.82;;;;;;;;;;5088854;27;42727;-66
2024/01/30 13:12:38;;;;;;;6.90;4.78;;;;;;;;;;5098939;28;40427;-66
2024/01/30 13:15:07;;;;;;;7.93;4.78;;;;;;;;;;5105014;27;42160;-66
2024/01/30 13:17:36;;;;;;;9.20;4.72;;;;;;;;;;5089492;28;42707;-67
2024/01/30 13:20:04;;;;;;;8.02;3.80;;;;;;;;;;5105246;27;41332;-67
2024/01/30 13:22:39;;;;;;;6.93;3.25;;;;;;;;;;5108537;27;42609;-69
2024/01/30 13:25:08;;;;;;;6.22;3.63;;;;;;;;;;5096506;27;40368;-68
2024/01/30 13:27:36;;;;;;;6.93;3.03;;;;;;;;;;5103350;27;41563;-68
2024/01/30 13:30:07;;;;;;;4.28;3.10;;;;;;;;;;5107012;27;42853;-69
2024/01/30 13:32:35;;;;;;;5.38;2.25;;;;;;;;;;5102483;27;41196;-69
2024/01/30 13:35:04;;;;;;;17.48;2.55;;;;;;;;;;5102031;27;41563;-69
2024/01/30 13:37:32;;;;;;;6.55;2.20;;;;;;;;;;5104388;27;43062;-68
2024/01/30 13:40:00;;;;;;;4.40;2.38;;;;;;;;;;5108550;27;40886;-69
2024/01/30 13:42:32;;;;;;;6.65;2.45;;;;;;;;;;5109155;27;41151;-69
2024/01/30 13:45:00;;;;;;;8.57;1.90;;;;;;;;;;5108177;27;39807;-67
2024/01/30 13:47:29;;;;;;;5.55;1.50;;;;;;;;;;5095151;27;41198;-71
2024/01/30 13:49:57;;;;;;;4.05;1.45;;;;;;;;;;5095330;28;42135;-72
2024/01/30 13:52:25;;;;;;;5.38;2.03;;;;;;;;;;5094675;27;40790;-71
2024/01/30 13:55:02;;;;;;;2.88;2.00;;;;;;;;;;5097000;27;41789;-70
2024/01/30 13:57:33;;;;;;;3.13;1.50;;;;;;;;;;5098986;27;42317;-69
2024/01/30 14:00:01;;;;;;;4.00;1.10;;;;;;;;;;5098821;27;40006;-68
2024/01/30 14:02:30;;;;;;;3.25;1.23;;;;;;;;;;5099140;27;41674;-69
2024/01/30 14:04:58;;;;;;;3.42;1.75;;;;;;;;;;5105585;27;41661;-68
2024/01/30 14:07:26;;;;;;;6.20;1.33;;;;;;;;;;5106099;27;41332;-68
2024/01/30 14:09:54;;;;;;;3.25;1.33;;;;;;;;;;5096056;27;42035;-69
2024/01/30 14:12:23;;;;;;;2.83;1.33;;;;;;;;;;5092599;28;40221;-69
2024/01/30 14:14:51;;;;;;;4.03;1.25;;;;;;;;;;5101287;27;41896;-69
2024/01/30 14:17:19;;;;;;;3.45;0.90;;;;;;;;;;5107935;27;42630;-69
2024/01/30 14:19:48;;;;;;;2.38;1.27;;;;;;;;;;5097273;27;40064;-70
2024/01/30 14:22:16;;;;;;;5.95;1.55;;;;;;;;;;5108504;27;41543;-69
2024/01/30 14:24:44;;;;;;;4.97;1.42;;;;;;;;;;5107785;27;42854;-69
2024/01/30 14:27:12;;;;;;;2.80;1.55;;;;;;;;;;5107340;27;41236;-69
2024/01/30 14:29:41;;;;;;;2.05;1.50;;;;;;;;;;5106833;27;42507;-69
2024/01/30 14:32:09;;;;;;;4.60;1.67;;;;;;;;;;5107191;27;40493;-69
2024/01/30 14:34:37;;;;;;;3.63;1.83;;;;;;;;;;5103739;27;41737;-69
2024/01/30 14:37:07;;;;;;;3.03;1.67;;;;;;;;;;5104731;27;41830;-69
2024/01/30 14:39:37;;;;;;;3.25;1.80;;;;;;;;;;5104050;27;40970;-71
2024/01/30 14:42:05;;;;;;;8.13;2.17;;;;;;;;;;5106857;27;41386;-73
2024/01/30 14:44:33;;;;;;;3.80;2.03;;;;;;;;;;5102936;27;41978;-70
2024/01/30 14:47:01;;;;;;;4.10;2.05;;;;;;;;;;5097505;28;41521;-74
2024/01/30 14:49:29;;;;;;;5.95;2.25;;;;;;;;;;5109733;27;42425;-69
2024/01/30 14:51:58;;;;;;;5.28;2.47;;;;;;;;;;5097151;28;41299;-66